createdAt,value
2023-03-21T00:01:52.693Z,2.00
2023-03-21T00:04:21.557Z,1.90
2023-03-21T00:06:51.876Z,2.17
2023-03-21T00:09:20.538Z,1.63
2023-03-21T00:11:49.553Z,2.77
2023-03-21T00:14:19.076Z,1.83
2023-03-21T00:16:51.083Z,1.40
2023-03-21T00:19:25.028Z,1.63
2023-03-21T00:22:06.985Z,1.97
2023-03-21T00:24:37.245Z,2.50
2023-03-21T00:27:30.284Z,1.53
2023-03-21T00:29:57.087Z,2.13
2023-03-21T00:32:27.921Z,1.57
2023-03-21T00:35:13.962Z,2.03
2023-03-21T00:37:47.997Z,1.70
2023-03-21T00:40:26.733Z,1.70
2023-03-21T00:42:59.723Z,1.17
2023-03-21T00:45:28.243Z,1.20
2023-03-21T00:47:56.841Z,1.00
2023-03-21T00:50:25.706Z,1.40
2023-03-21T00:52:55.520Z,1.30
2023-03-21T00:55:26.888Z,5.53
2023-03-21T00:58:01.503Z,3.43
2023-03-21T01:00:30.523Z,2.03
2023-03-21T01:03:17.518Z,1.40
2023-03-21T01:06:08.431Z,1.83
2023-03-21T01:08:55.010Z,2.93
2023-03-21T01:11:25.581Z,1.97
2023-03-21T01:14:04.010Z,1.40
2023-03-21T01:16:36.311Z,2.67
2023-03-21T01:19:09.452Z,1.50
2023-03-21T01:21:43.522Z,2.20
2023-03-21T01:24:14.338Z,2.23
2023-03-21T01:26:42.769Z,6.63
2023-03-21T01:29:11.559Z,2.43
2023-03-21T01:31:40.249Z,2.57
2023-03-21T01:34:09.289Z,2.60
2023-03-21T01:36:37.969Z,2.80
2023-03-21T01:39:10.687Z,1.53
2023-03-21T01:41:44.331Z,2.67
2023-03-21T01:44:21.996Z,2.70
2023-03-21T01:47:10.944Z,1.90
2023-03-21T01:49:48.690Z,1.87
2023-03-21T01:52:40.559Z,4.33
2023-03-21T01:55:15.610Z,4.30
2023-03-21T01:58:06.427Z,2.03
2023-03-21T02:01:05.871Z,1.60
2023-03-21T02:03:50.286Z,1.97
2023-03-21T02:06:35.496Z,1.83
2023-03-21T02:09:17.856Z,2.00
2023-03-21T02:11:47.973Z,2.20
2023-03-21T02:14:29.011Z,1.90
2023-03-21T02:17:12.286Z,1.80
2023-03-21T02:20:13.525Z,1.73
2023-03-21T02:23:29.562Z,2.10
2023-03-21T02:26:42.391Z,2.17
2023-03-21T02:29:32.880Z,2.00
2023-03-21T02:32:22.431Z,1.50
2023-03-21T02:35:17.400Z,3.57
2023-03-21T02:37:58.572Z,1.87
2023-03-21T02:40:35.062Z,1.40
2023-03-21T02:43:22.229Z,1.00
2023-03-21T02:45:56.351Z,2.37
2023-03-21T02:48:38.113Z,2.17
2023-03-21T02:51:17.574Z,2.50
2023-03-21T02:54:21.892Z,2.57
2023-03-21T02:56:45.951Z,2.40
2023-03-21T02:59:16.399Z,2.13
2023-03-21T03:01:45.275Z,1.20
2023-03-21T03:04:23.272Z,1.70
2023-03-21T03:07:14.471Z,1.20
2023-03-21T03:10:01.157Z,1.30
2023-03-21T03:12:37.581Z,2.40
2023-03-21T03:15:19.316Z,2.63
2023-03-21T03:17:55.788Z,1.43
2023-03-21T03:20:31.822Z,3.10
2023-03-21T03:23:08.898Z,1.33
2023-03-21T03:25:43.886Z,2.10
2023-03-21T03:28:19.774Z,3.43
2023-03-21T03:31:07.044Z,1.50
2023-03-21T03:33:45.613Z,1.27
2023-03-21T03:36:33.599Z,2.53
2023-03-21T03:39:10.801Z,2.47
2023-03-21T03:42:08.085Z,1.80
2023-03-21T03:44:41.305Z,1.73
2023-03-21T03:47:22.893Z,2.10
2023-03-21T03:50:02.374Z,1.70
2023-03-21T03:52:40.081Z,1.90
2023-03-21T03:55:17.842Z,1.70
2023-03-21T03:57:51.088Z,2.63
2023-03-21T04:00:21.033Z,3.50
2023-03-21T04:02:51.826Z,2.30
2023-03-21T04:05:25.158Z,1.87
2023-03-21T04:07:55.139Z,2.13
2023-03-21T04:10:32.227Z,3.30
2023-03-21T04:13:03.412Z,4.03
2023-03-21T04:15:45.981Z,1.90
2023-03-21T04:18:17.455Z,2.10
2023-03-21T04:20:46.302Z,2.40
2023-03-21T04:23:14.877Z,2.23
2023-03-21T04:25:55.937Z,2.23
2023-03-21T04:28:33.714Z,1.50
2023-03-21T04:31:28.715Z,2.17
2023-03-21T04:34:10.177Z,1.83
2023-03-21T04:36:44.698Z,1.67
2023-03-21T04:39:13.615Z,2.20
2023-03-21T04:41:44.752Z,2.33
2023-03-21T04:44:16.675Z,1.90
2023-03-21T04:46:45.749Z,2.20
2023-03-21T04:49:15.655Z,1.83
2023-03-21T04:51:46.458Z,2.50
2023-03-21T04:54:21.166Z,2.37
2023-03-21T04:56:49.633Z,1.83
2023-03-21T04:59:21.512Z,3.33
2023-03-21T05:01:51.173Z,2.03
2023-03-21T05:04:20.746Z,3.03
2023-03-21T05:06:49.232Z,1.83
2023-03-21T05:09:18.208Z,4.03
2023-03-21T05:11:46.652Z,1.37
2023-03-21T05:14:20.343Z,1.37
2023-03-21T05:16:53.565Z,1.67
2023-03-21T05:19:24.571Z,1.97
2023-03-21T05:21:53.471Z,2.17
2023-03-21T05:24:24.732Z,1.73
2023-03-21T05:26:56.382Z,5.33
2023-03-21T05:29:33.912Z,2.87
2023-03-21T05:32:05.315Z,1.90
2023-03-21T05:34:33.704Z,5.93
2023-03-21T05:37:03.060Z,3.87
2023-03-21T05:39:45.033Z,2.27
2023-03-21T05:42:20.777Z,2.43
2023-03-21T05:44:52.008Z,2.20
2023-03-21T05:47:25.487Z,3.27
2023-03-21T05:49:55.391Z,2.87
2023-03-21T05:52:24.829Z,1.50
2023-03-21T05:54:53.588Z,2.80
2023-03-21T05:57:26.413Z,2.17
2023-03-21T06:00:07.301Z,1.73
2023-03-21T06:02:44.755Z,1.37
2023-03-21T06:05:31.737Z,1.70
2023-03-21T06:08:00.258Z,4.53
2023-03-21T06:10:28.989Z,4.00
2023-03-21T06:12:58.456Z,1.80
2023-03-21T06:15:32.042Z,2.90
2023-03-21T06:18:13.181Z,3.60
2023-03-21T06:20:50.921Z,1.77
2023-03-21T06:23:19.361Z,4.20
2023-03-21T06:25:49.472Z,4.37
2023-03-21T06:28:19.010Z,2.37
2023-03-21T06:30:48.842Z,1.67
2023-03-21T06:33:21.956Z,3.00
2023-03-21T06:35:53.627Z,1.17
2023-03-21T06:38:23.171Z,2.67
2023-03-21T06:40:51.984Z,2.47
2023-03-21T06:43:20.600Z,1.50
2023-03-21T06:45:50.502Z,2.20
2023-03-21T06:48:19.103Z,2.17
2023-03-21T06:50:51.961Z,2.17
2023-03-21T06:53:24.598Z,6.00
2023-03-21T06:56:17.485Z,1.70
2023-03-21T06:58:47.244Z,2.73
2023-03-21T07:01:37.081Z,4.07
2023-03-21T07:04:08.595Z,2.03
2023-03-21T07:06:37.381Z,3.60
2023-03-21T07:09:06.833Z,2.97
2023-03-21T07:11:37.799Z,5.57
2023-03-21T07:14:07.798Z,5.53
2023-03-21T07:16:39.774Z,3.93
2023-03-21T07:19:08.172Z,3.00
2023-03-21T07:21:36.533Z,3.73
2023-03-21T07:24:05.690Z,2.83
2023-03-21T07:26:34.475Z,4.53
2023-03-21T07:29:04.995Z,3.37
2023-03-21T07:31:33.520Z,3.50
2023-03-21T07:34:06.116Z,4.40
2023-03-21T07:36:34.749Z,4.53
2023-03-21T07:39:03.142Z,3.97
2023-03-21T07:41:31.623Z,4.00
2023-03-21T07:44:11.928Z,2.90
2023-03-21T07:46:40.356Z,3.73
2023-03-21T07:49:10.158Z,3.97
2023-03-21T07:51:39.162Z,2.17
2023-03-21T07:54:07.840Z,4.37
2023-03-21T07:56:36.519Z,2.10
2023-03-21T07:59:05.600Z,3.43
2023-03-21T08:01:34.139Z,2.97
2023-03-21T08:04:02.516Z,1.50
2023-03-21T08:06:32.669Z,2.40
2023-03-21T08:09:01.609Z,2.53
2023-03-21T08:11:31.590Z,2.33
2023-03-21T08:14:00.170Z,2.73
2023-03-21T08:16:29.351Z,1.77
2023-03-21T08:18:57.773Z,2.03
2023-03-21T08:21:28.179Z,1.60
2023-03-21T08:23:58.256Z,2.57
2023-03-21T08:26:26.775Z,2.10
2023-03-21T08:28:55.190Z,3.40
2023-03-21T08:31:23.837Z,1.33
2023-03-21T08:33:54.830Z,2.20
2023-03-21T08:36:23.894Z,2.23
2023-03-21T08:38:57.026Z,1.57
2023-03-21T08:41:27.148Z,2.60
2023-03-21T08:43:55.676Z,1.90
2023-03-21T08:46:24.084Z,4.57
2023-03-21T08:48:52.541Z,1.77
2023-03-21T08:51:21.000Z,4.17
2023-03-21T08:53:51.186Z,2.20
2023-03-21T08:56:19.878Z,1.33
2023-03-21T08:58:49.858Z,2.13
2023-03-21T09:01:18.632Z,2.40
2023-03-21T09:03:47.058Z,1.70
2023-03-21T09:06:15.963Z,3.97
2023-03-21T09:08:46.409Z,1.40
2023-03-21T09:11:15.237Z,2.17
2023-03-21T09:13:43.709Z,2.20
2023-03-21T09:16:13.575Z,2.60
2023-03-21T09:18:49.645Z,1.73
2023-03-21T09:21:20.382Z,4.00
2023-03-21T09:23:52.957Z,2.37
2023-03-21T09:26:24.228Z,1.57
2023-03-21T09:28:53.324Z,3.10
2023-03-21T09:31:25.107Z,1.17
2023-03-21T09:33:56.200Z,2.17
2023-03-21T09:36:25.213Z,1.80
2023-03-21T09:38:53.963Z,1.87
2023-03-21T09:41:34.015Z,3.87
2023-03-21T09:44:15.589Z,1.33
2023-03-21T09:46:52.417Z,1.37
2023-03-21T09:49:25.781Z,1.57
2023-03-21T09:51:57.428Z,2.03
2023-03-21T09:54:29.115Z,1.30
2023-03-21T09:57:03.911Z,1.73
2023-03-21T09:59:38.355Z,2.30
2023-03-21T10:02:23.969Z,2.40
2023-03-21T10:04:53.124Z,3.33
2023-03-21T10:07:21.641Z,2.80
2023-03-21T10:09:52.692Z,2.40
2023-03-21T10:12:24.892Z,2.57
2023-03-21T10:14:57.964Z,3.30
2023-03-21T10:17:34.269Z,4.07
2023-03-21T10:20:13.539Z,3.60
2023-03-21T10:22:42.380Z,2.50
2023-03-21T10:25:18.010Z,2.97
2023-03-21T10:27:47.437Z,2.30
2023-03-21T10:30:29.567Z,2.67
2023-03-21T10:33:05.238Z,2.40
2023-03-21T10:35:37.522Z,3.00
2023-03-21T10:38:08.247Z,3.37
2023-03-21T10:40:36.660Z,2.27
2023-03-21T10:43:19.542Z,2.10
2023-03-21T10:45:48.940Z,3.47
2023-03-21T10:48:18.936Z,1.80
2023-03-21T10:50:50.712Z,1.50
2023-03-21T10:53:23.196Z,1.30
2023-03-21T10:55:55.537Z,1.97
2023-03-21T10:58:28.195Z,1.20
2023-03-21T11:00:59.372Z,3.57
2023-03-21T11:03:33.697Z,2.13
2023-03-21T11:06:05.316Z,1.80
2023-03-21T11:08:40.208Z,1.53
2023-03-21T11:11:12.531Z,2.13
2023-03-21T11:13:43.028Z,1.10
2023-03-21T11:16:13.444Z,2.23
2023-03-21T11:18:47.631Z,3.13
2023-03-21T11:21:17.208Z,2.00
2023-03-21T11:23:48.242Z,1.40
2023-03-21T11:26:24.421Z,1.20
2023-03-21T11:28:53.424Z,2.60
2023-03-21T11:31:25.000Z,13.53
2023-03-21T11:34:00.043Z,3.43
2023-03-21T11:36:35.274Z,2.40
2023-03-21T11:39:16.609Z,1.83
2023-03-21T11:41:49.489Z,3.60
2023-03-21T11:44:29.969Z,1.73
2023-03-21T11:46:58.836Z,1.80
2023-03-21T11:49:29.600Z,1.57
2023-03-21T11:52:13.641Z,1.63
2023-03-21T11:54:52.902Z,1.77
2023-03-21T11:57:31.592Z,1.90
2023-03-21T12:00:10.858Z,2.53
2023-03-21T12:03:02.914Z,1.40
2023-03-21T12:05:37.793Z,2.00
2023-03-21T12:08:21.713Z,1.27
2023-03-21T12:10:56.391Z,2.87
2023-03-21T12:13:39.209Z,1.83
2023-03-21T12:16:21.291Z,0.90
2023-03-21T12:19:23.915Z,1.70
2023-03-21T12:22:05.763Z,1.30
2023-03-21T12:24:38.881Z,3.93
2023-03-21T12:27:15.740Z,1.20
2023-03-21T12:30:00.107Z,1.80
2023-03-21T12:32:46.264Z,2.67
2023-03-21T12:35:33.611Z,1.30
2023-03-21T12:38:16.682Z,1.70
2023-03-21T12:40:54.870Z,2.80
2023-03-21T12:43:37.869Z,1.33
2023-03-21T12:46:13.194Z,1.20
2023-03-21T12:48:47.587Z,3.53
2023-03-21T12:51:19.926Z,3.67
2023-03-21T12:54:06.468Z,2.90
2023-03-21T12:56:39.560Z,2.60
2023-03-21T12:59:19.482Z,2.87
2023-03-21T13:01:51.890Z,1.97
2023-03-21T13:04:36.899Z,1.60
2023-03-21T13:07:09.278Z,5.53
2023-03-21T13:09:41.065Z,2.30
2023-03-21T13:12:25.827Z,1.20
2023-03-21T13:15:12.462Z,3.60
2023-03-21T13:17:49.990Z,3.40
2023-03-21T13:20:26.463Z,1.00
2023-03-21T13:22:54.909Z,1.90
2023-03-21T13:25:28.304Z,6.27
2023-03-21T13:28:03.289Z,3.03
2023-03-21T13:30:33.618Z,1.47
2023-03-21T13:33:07.220Z,1.93
2023-03-21T13:35:38.674Z,2.00
2023-03-21T13:38:16.583Z,2.67
2023-03-21T13:40:50.051Z,1.70
2023-03-21T13:43:53.814Z,2.13
2023-03-21T13:46:53.982Z,3.30
2023-03-21T13:49:32.496Z,1.70
2023-03-21T13:52:02.406Z,3.17
2023-03-21T13:54:49.791Z,2.03
2023-03-21T13:57:39.648Z,2.43
2023-03-21T14:00:25.804Z,1.17
2023-03-21T14:03:00.115Z,3.83
2023-03-21T14:05:30.487Z,1.90
2023-03-21T14:08:13.636Z,2.33
2023-03-21T14:10:46.444Z,6.33
2023-03-21T14:13:20.989Z,2.03
2023-03-21T14:15:55.955Z,3.60
2023-03-21T14:18:41.020Z,5.80
2023-03-21T14:21:23.763Z,2.80
2023-03-21T14:24:01.528Z,1.70
2023-03-21T14:26:33.416Z,3.77
2023-03-21T14:29:12.328Z,2.47
2023-03-21T14:31:47.281Z,4.13
2023-03-21T14:34:16.998Z,3.90
2023-03-21T14:36:56.838Z,2.90
2023-03-21T14:39:29.755Z,3.33
2023-03-21T14:42:03.575Z,1.40
2023-03-21T14:44:53.523Z,3.40
2023-03-21T14:47:25.333Z,3.20
2023-03-21T14:49:54.430Z,4.03
2023-03-21T14:52:26.238Z,3.73
2023-03-21T14:54:56.477Z,1.27
2023-03-21T14:57:28.896Z,1.80
2023-03-21T15:00:04.212Z,3.73
2023-03-21T15:02:36.757Z,3.27
2023-03-21T15:05:11.368Z,4.40
2023-03-21T15:07:39.906Z,2.13
2023-03-21T15:10:18.054Z,2.93
2023-03-21T15:12:54.599Z,2.67
2023-03-21T15:15:27.583Z,1.73
2023-03-21T15:18:00.828Z,1.37
2023-03-21T15:20:35.138Z,2.67
2023-03-21T15:23:07.176Z,2.53
2023-03-21T15:25:38.238Z,1.93
2023-03-21T15:28:07.495Z,2.87
2023-03-21T15:30:37.438Z,3.47
2023-03-21T15:33:11.837Z,2.50
2023-03-21T15:35:43.045Z,3.27
2023-03-21T15:38:23.924Z,5.37
2023-03-21T15:40:52.414Z,2.50
2023-03-21T15:43:21.348Z,2.57
2023-03-21T15:45:54.442Z,2.37
2023-03-21T15:48:26.306Z,6.70
2023-03-21T15:50:59.876Z,2.53
2023-03-21T15:53:28.320Z,5.23
2023-03-21T15:56:02.048Z,2.73
2023-03-21T15:58:37.350Z,2.43
2023-03-21T16:01:12.600Z,2.93
2023-03-21T16:03:46.104Z,2.10
2023-03-21T16:06:25.809Z,2.40
2023-03-21T16:09:04.425Z,2.43
2023-03-21T16:11:40.465Z,1.87
2023-03-21T16:14:09.347Z,2.93
2023-03-21T16:16:39.408Z,2.50
2023-03-21T16:19:08.661Z,5.83
2023-03-21T16:21:38.518Z,4.63
2023-03-21T16:24:09.146Z,2.17
2023-03-21T16:26:42.799Z,1.90
2023-03-21T16:29:13.889Z,2.93
2023-03-21T16:31:44.263Z,2.43
2023-03-21T16:34:13.812Z,2.77
2023-03-21T16:36:43.573Z,2.77
2023-03-21T16:39:18.151Z,1.73
2023-03-21T16:41:46.836Z,1.23
2023-03-21T16:44:15.578Z,1.03
2023-03-21T16:46:47.343Z,1.90
2023-03-21T16:49:21.649Z,3.73
2023-03-21T16:51:50.041Z,1.13
2023-03-21T16:54:18.733Z,4.40
2023-03-21T16:56:50.648Z,4.50
2023-03-21T16:59:19.426Z,1.00
2023-03-21T17:01:49.968Z,2.77
2023-03-21T17:04:19.647Z,3.50
2023-03-21T17:06:50.179Z,1.53
2023-03-21T17:09:20.314Z,1.30
2023-03-21T17:11:49.679Z,3.73
2023-03-21T17:14:18.850Z,1.40
2023-03-21T17:16:49.130Z,2.60
2023-03-21T17:19:19.482Z,2.57
2023-03-21T17:21:48.258Z,1.67
2023-03-21T17:24:16.972Z,3.10
2023-03-21T17:26:45.836Z,2.37
2023-03-21T17:29:15.516Z,2.03
2023-03-21T17:31:47.441Z,4.93
2023-03-21T17:34:17.874Z,2.70
2023-03-21T17:36:48.894Z,1.87
2023-03-21T17:39:21.639Z,2.97
2023-03-21T17:41:50.195Z,3.03
2023-03-21T17:44:18.739Z,2.70
2023-03-21T17:46:49.588Z,2.53
2023-03-21T17:49:21.329Z,5.03
2023-03-21T17:51:50.638Z,2.87
2023-03-21T17:54:19.128Z,5.03
2023-03-21T17:56:47.600Z,1.80
2023-03-21T17:59:16.697Z,2.00
2023-03-21T18:01:45.194Z,5.87
2023-03-21T18:04:13.723Z,2.23
2023-03-21T18:06:43.625Z,3.17
2023-03-21T18:09:12.446Z,2.63
2023-03-21T18:11:42.177Z,1.57
2023-03-21T18:14:17.229Z,1.90
2023-03-21T18:16:47.006Z,3.83
2023-03-21T18:19:16.448Z,2.60
2023-03-21T18:21:46.678Z,3.90
2023-03-21T18:24:15.515Z,4.20
2023-03-21T18:26:46.119Z,4.33
2023-03-21T18:30:15.930Z,3.10
2023-03-21T18:32:07.734Z,2.30
2023-03-21T18:34:38.770Z,3.10
2023-03-21T18:37:12.010Z,2.27
2023-03-21T18:39:42.655Z,2.87
2023-03-21T18:42:17.253Z,4.67
2023-03-21T18:44:47.996Z,4.87
2023-03-21T18:47:16.862Z,4.37
2023-03-21T18:50:12.771Z,3.30
2023-03-21T18:52:35.620Z,2.57
2023-03-21T18:55:05.331Z,3.80
2023-03-21T18:57:37.388Z,6.47
2023-03-21T19:00:13.453Z,4.53
2023-03-21T19:02:46.966Z,2.50
2023-03-21T19:05:17.606Z,2.37
2023-03-21T19:07:48.501Z,3.53
2023-03-21T19:10:20.095Z,2.77
2023-03-21T19:12:49.361Z,4.37
2023-03-21T19:15:19.854Z,14.03
2023-03-21T19:20:38.259Z,5.13
2023-03-21T19:23:10.068Z,2.93
2023-03-21T19:25:39.297Z,6.70
2023-03-21T19:28:08.372Z,2.83
2023-03-21T19:30:37.237Z,3.47
2023-03-21T19:33:07.550Z,5.40
2023-03-21T19:35:37.806Z,6.80
2023-03-21T19:38:07.992Z,3.40
2023-03-21T19:40:36.679Z,9.73
2023-03-21T19:43:29.825Z,5.10
2023-03-21T19:45:54.142Z,3.83
2023-03-21T19:48:23.544Z,3.50
2023-03-21T19:51:24.703Z,6.17
2023-03-21T19:53:42.284Z,4.47
2023-03-21T19:56:21.860Z,4.17
2023-03-21T19:58:52.287Z,4.60
2023-03-21T20:01:20.785Z,5.00
2023-03-21T20:03:49.601Z,3.10
2023-03-21T20:06:17.975Z,1.93
2023-03-21T20:11:37.964Z,5.63
2023-03-21T20:14:06.472Z,3.27
2023-03-21T20:16:36.785Z,5.43
2023-03-21T20:19:06.228Z,4.67
2023-03-21T20:21:45.324Z,4.17
2023-03-21T20:24:18.734Z,4.20
2023-03-21T20:26:47.307Z,3.17
2023-03-21T20:32:04.235Z,5.03
2023-03-21T20:34:33.108Z,4.97
2023-03-21T20:37:03.203Z,4.90
2023-03-21T20:39:33.087Z,3.23
2023-03-21T20:42:01.537Z,5.83
2023-03-21T20:44:57.815Z,5.10
2023-03-21T20:47:18.793Z,3.30
2023-03-21T20:49:47.324Z,9.13
2023-03-21T20:55:09.315Z,4.27
2023-03-21T20:57:38.929Z,4.83
2023-03-21T21:00:15.111Z,4.00
2023-03-21T21:02:45.137Z,4.07
2023-03-21T21:05:27.526Z,3.60
2023-03-21T21:07:57.438Z,3.43
2023-03-21T21:10:27.196Z,4.20
2023-03-21T21:12:55.751Z,3.10
2023-03-21T21:15:24.143Z,2.43
2023-03-21T21:18:06.506Z,3.20
2023-03-21T21:20:36.603Z,2.80
2023-03-21T21:23:06.152Z,2.97
2023-03-21T21:25:36.422Z,5.57
2023-03-21T21:28:09.284Z,4.03
2023-03-21T21:30:41.950Z,2.67
2023-03-21T21:33:11.568Z,2.90
2023-03-21T21:35:47.002Z,3.20
2023-03-21T21:38:17.927Z,3.23
2023-03-21T21:40:48.601Z,3.00
2023-03-21T21:43:19.145Z,2.97
2023-03-21T21:45:49.539Z,3.37
2023-03-21T21:48:18.071Z,3.63
2023-03-21T21:50:48.467Z,6.13
2023-03-21T21:53:19.186Z,4.57
2023-03-21T21:55:49.722Z,2.57
2023-03-21T21:58:19.320Z,2.37
2023-03-21T22:00:48.536Z,3.23
2023-03-21T22:03:22.217Z,3.53
2023-03-21T22:05:52.525Z,3.13
2023-03-21T22:08:23.154Z,3.87
2023-03-21T22:10:54.022Z,3.53
2023-03-21T22:13:22.377Z,3.03
2023-03-21T22:15:51.838Z,3.93
2023-03-21T22:18:20.289Z,4.07
2023-03-21T22:20:49.033Z,4.37
2023-03-21T22:23:19.506Z,4.53
2023-03-21T22:25:52.210Z,3.50
2023-03-21T22:28:25.792Z,6.27
2023-03-21T22:30:54.442Z,11.63
2023-03-21T22:33:22.968Z,11.80
2023-03-21T22:35:51.799Z,7.00
2023-03-21T22:38:24.348Z,5.70
2023-03-21T22:40:56.507Z,6.27
2023-03-21T22:43:26.824Z,6.00
2023-03-21T22:45:55.528Z,4.50
2023-03-21T22:48:24.208Z,9.40
2023-03-21T22:50:52.731Z,24.77
2023-03-21T22:53:21.187Z,32.07
2023-03-21T22:55:50.578Z,17.47
2023-03-21T22:58:19.989Z,13.30
2023-03-21T23:00:50.214Z,10.90
2023-03-21T23:03:19.039Z,8.33
2023-03-21T23:05:47.546Z,12.80
2023-03-21T23:08:16.140Z,8.97
2023-03-21T23:10:46.090Z,8.43
2023-03-21T23:13:14.533Z,10.80
2023-03-21T23:15:43.111Z,12.47
2023-03-21T23:18:14.986Z,10.27
2023-03-21T23:20:43.412Z,6.43
2023-03-21T23:23:11.790Z,8.80
2023-03-21T23:25:42.478Z,5.73
2023-03-21T23:28:11.292Z,5.20
2023-03-21T23:30:39.955Z,4.33
2023-03-21T23:33:08.583Z,7.33
2023-03-21T23:35:39.556Z,5.63
2023-03-21T23:38:08.060Z,5.77
2023-03-21T23:40:39.484Z,4.13
2023-03-21T23:43:08.027Z,8.23
2023-03-21T23:45:36.843Z,4.27
2023-03-21T23:48:07.640Z,5.77
2023-03-21T23:50:36.206Z,5.30
2023-03-21T23:53:06.013Z,4.37
2023-03-21T23:55:37.852Z,3.90
2023-03-21T23:58:09.497Z,4.17
